sensor_id;sensor_type;location;lat;lon;timestamp;P1;durP1;ratioP1;P2;durP2;ratioP2
3563;SDS011;1796;52.388;13.096;2022-12-29T00:00:54;1.50;;;1.40;;
3563;SDS011;1796;52.388;13.096;2022-12-29T00:03:21;1.90;;;1.80;;
3563;SDS011;1796;52.388;13.096;2022-12-29T00:05:53;5.00;;;1.70;;
3563;SDS011;1796;52.388;13.096;2022-12-29T00:08:20;1.77;;;1.77;;
3563;SDS011;1796;52.388;13.096;2022-12-29T00:11:05;2.07;;;1.97;;
3563;SDS011;1796;52.388;13.096;2022-12-29T00:13:33;2.07;;;1.87;;
3563;SDS011;1796;52.388;13.096;2022-12-29T00:16:17;1.67;;;1.60;;
3563;SDS011;1796;52.388;13.096;2022-12-29T00:18:44;2.97;;;1.60;;
3563;SDS011;1796;52.388;13.096;2022-12-29T00:21:12;1.70;;;1.70;;
3563;SDS011;1796;52.388;13.096;2022-12-29T00:23:58;1.73;;;1.70;;
3563;SDS011;1796;52.388;13.096;2022-12-29T00:26:44;1.73;;;1.53;;
3563;SDS011;1796;52.388;13.096;2022-12-29T00:29:28;3.77;;;2.20;;
3563;SDS011;1796;52.388;13.096;2022-12-29T00:32:12;1.80;;;1.70;;
3563;SDS011;1796;52.388;13.096;2022-12-29T00:34:57;1.60;;;1.60;;
3563;SDS011;1796;52.388;13.096;2022-12-29T00:37:36;1.43;;;1.40;;
3563;SDS011;1796;52.388;13.096;2022-12-29T00:40:22;2.20;;;2.10;;
3563;SDS011;1796;52.388;13.096;2022-12-29T00:43:07;3.03;;;1.27;;
3563;SDS011;1796;52.388;13.096;2022-12-29T00:45:52;1.77;;;1.53;;
3563;SDS011;1796;52.388;13.096;2022-12-29T00:48:19;1.87;;;1.77;;
3563;SDS011;1796;52.388;13.096;2022-12-29T00:51:06;1.97;;;1.60;;
3563;SDS011;1796;52.388;13.096;2022-12-29T00:53:32;4.20;;;1.93;;
3563;SDS011;1796;52.388;13.096;2022-12-29T00:56:00;1.50;;;1.50;;
3563;SDS011;1796;52.388;13.096;2022-12-29T00:58:29;2.00;;;1.90;;
3563;SDS011;1796;52.388;13.096;2022-12-29T01:01:00;3.33;;;1.70;;
3563;SDS011;1796;52.388;13.096;2022-12-29T01:03:28;1.73;;;1.63;;
3563;SDS011;1796;52.388;13.096;2022-12-29T01:05:55;1.60;;;1.50;;
3563;SDS011;1796;52.388;13.096;2022-12-29T01:08:22;2.33;;;2.13;;
3563;SDS011;1796;52.388;13.096;2022-12-29T01:10:57;2.13;;;1.60;;
3563;SDS011;1796;52.388;13.096;2022-12-29T01:13:23;1.67;;;1.57;;
3563;SDS011;1796;52.388;13.096;2022-12-29T01:15:52;1.70;;;1.60;;
3563;SDS011;1796;52.388;13.096;2022-12-29T01:18:19;1.83;;;1.73;;
3563;SDS011;1796;52.388;13.096;2022-12-29T01:20:46;4.40;;;1.63;;
3563;SDS011;1796;52.388;13.096;2022-12-29T01:23:14;8.43;;;1.70;;
3563;SDS011;1796;52.388;13.096;2022-12-29T01:25:41;1.47;;;1.47;;
3563;SDS011;1796;52.388;13.096;2022-12-29T01:28:07;1.47;;;1.47;;
3563;SDS011;1796;52.388;13.096;2022-12-29T01:30:34;4.60;;;1.60;;
3563;SDS011;1796;52.388;13.096;2022-12-29T01:33:03;2.10;;;1.50;;
3563;SDS011;1796;52.388;13.096;2022-12-29T01:35:30;1.80;;;1.70;;
3563;SDS011;1796;52.388;13.096;2022-12-29T01:37:57;1.47;;;1.37;;
3563;SDS011;1796;52.388;13.096;2022-12-29T01:40:24;1.63;;;1.53;;
3563;SDS011;1796;52.388;13.096;2022-12-29T01:42:51;1.77;;;1.67;;
3563;SDS011;1796;52.388;13.096;2022-12-29T01:45:18;3.63;;;1.77;;
3563;SDS011;1796;52.388;13.096;2022-12-29T01:47:45;1.70;;;1.70;;
3563;SDS011;1796;52.388;13.096;2022-12-29T01:50:18;4.27;;;1.80;;
3563;SDS011;1796;52.388;13.096;2022-12-29T01:52:51;5.70;;;1.80;;
3563;SDS011;1796;52.388;13.096;2022-12-29T01:55:23;2.93;;;1.57;;
3563;SDS011;1796;52.388;13.096;2022-12-29T01:57:51;1.90;;;1.77;;
3563;SDS011;1796;52.388;13.096;2022-12-29T02:00:20;1.87;;;1.77;;
3563;SDS011;1796;52.388;13.096;2022-12-29T02:02:49;2.00;;;1.90;;
3563;SDS011;1796;52.388;13.096;2022-12-29T02:05:23;4.30;;;1.50;;
3563;SDS011;1796;52.388;13.096;2022-12-29T02:07:53;1.90;;;1.83;;
3563;SDS011;1796;52.388;13.096;2022-12-29T02:10:21;1.60;;;1.50;;
3563;SDS011;1796;52.388;13.096;2022-12-29T02:12:50;2.07;;;1.97;;
3563;SDS011;1796;52.388;13.096;2022-12-29T02:15:19;2.30;;;1.50;;
3563;SDS011;1796;52.388;13.096;2022-12-29T02:18:03;1.90;;;1.80;;
3563;SDS011;1796;52.388;13.096;2022-12-29T02:20:54;1.37;;;1.37;;
3563;SDS011;1796;52.388;13.096;2022-12-29T02:23:48;2.20;;;1.30;;
3563;SDS011;1796;52.388;13.096;2022-12-29T02:26:45;3.20;;;1.60;;
3563;SDS011;1796;52.388;13.096;2022-12-29T02:29:35;2.30;;;1.60;;
3563;SDS011;1796;52.388;13.096;2022-12-29T02:32:17;1.50;;;1.50;;
3563;SDS011;1796;52.388;13.096;2022-12-29T02:34:54;2.60;;;1.30;;
3563;SDS011;1796;52.388;13.096;2022-12-29T02:37:29;2.30;;;1.67;;
3563;SDS011;1796;52.388;13.096;2022-12-29T02:40:04;2.40;;;1.60;;
3563;SDS011;1796;52.388;13.096;2022-12-29T02:42:41;1.67;;;1.30;;
3563;SDS011;1796;52.388;13.096;2022-12-29T02:45:13;1.70;;;1.60;;
3563;SDS011;1796;52.388;13.096;2022-12-29T02:47:48;2.17;;;1.90;;
3563;SDS011;1796;52.388;13.096;2022-12-29T02:50:19;1.50;;;1.40;;
3563;SDS011;1796;52.388;13.096;2022-12-29T02:52:50;3.17;;;1.20;;
3563;SDS011;1796;52.388;13.096;2022-12-29T02:55:21;2.60;;;1.50;;
3563;SDS011;1796;52.388;13.096;2022-12-29T02:57:46;1.90;;;1.40;;
3563;SDS011;1796;52.388;13.096;2022-12-29T03:00:14;1.60;;;1.50;;
3563;SDS011;1796;52.388;13.096;2022-12-29T03:05:48;3.03;;;1.67;;
3563;SDS011;1796;52.388;13.096;2022-12-29T03:08:29;1.40;;;1.30;;
3563;SDS011;1796;52.388;13.096;2022-12-29T03:11:02;2.93;;;1.37;;
3563;SDS011;1796;52.388;13.096;2022-12-29T03:13:32;1.57;;;1.47;;
3563;SDS011;1796;52.388;13.096;2022-12-29T03:16:24;1.53;;;1.53;;
3563;SDS011;1796;52.388;13.096;2022-12-29T03:19:00;1.27;;;1.13;;
3563;SDS011;1796;52.388;13.096;2022-12-29T03:21:32;6.10;;;1.43;;
3563;SDS011;1796;52.388;13.096;2022-12-29T03:24:22;1.37;;;1.30;;
3563;SDS011;1796;52.388;13.096;2022-12-29T03:26:52;2.70;;;1.40;;
3563;SDS011;1796;52.388;13.096;2022-12-29T03:29:21;1.37;;;1.27;;
3563;SDS011;1796;52.388;13.096;2022-12-29T03:31:48;1.30;;;1.30;;
3563;SDS011;1796;52.388;13.096;2022-12-29T03:34:19;7.60;;;1.57;;
3563;SDS011;1796;52.388;13.096;2022-12-29T03:36:48;4.00;;;1.70;;
3563;SDS011;1796;52.388;13.096;2022-12-29T03:39:20;2.87;;;1.67;;
3563;SDS011;1796;52.388;13.096;2022-12-29T03:41:50;2.20;;;1.80;;
3563;SDS011;1796;52.388;13.096;2022-12-29T03:44:21;2.40;;;1.70;;
3563;SDS011;1796;52.388;13.096;2022-12-29T03:46:57;1.87;;;1.77;;
3563;SDS011;1796;52.388;13.096;2022-12-29T03:49:25;1.53;;;1.43;;
3563;SDS011;1796;52.388;13.096;2022-12-29T03:51:52;1.37;;;1.37;;
3563;SDS011;1796;52.388;13.096;2022-12-29T03:54:19;1.50;;;1.37;;
3563;SDS011;1796;52.388;13.096;2022-12-29T03:56:46;2.00;;;1.70;;
3563;SDS011;1796;52.388;13.096;2022-12-29T03:59:13;3.00;;;1.73;;
3563;SDS011;1796;52.388;13.096;2022-12-29T04:01:40;1.53;;;1.43;;
3563;SDS011;1796;52.388;13.096;2022-12-29T04:04:08;15.57;;;1.50;;
3563;SDS011;1796;52.388;13.096;2022-12-29T04:06:36;1.70;;;1.60;;
3563;SDS011;1796;52.388;13.096;2022-12-29T04:09:03;3.07;;;1.80;;
3563;SDS011;1796;52.388;13.096;2022-12-29T04:11:30;2.03;;;1.80;;
3563;SDS011;1796;52.388;13.096;2022-12-29T04:13:57;1.23;;;1.23;;
3563;SDS011;1796;52.388;13.096;2022-12-29T04:16:24;1.77;;;1.67;;
3563;SDS011;1796;52.388;13.096;2022-12-29T04:18:51;3.13;;;1.50;;
3563;SDS011;1796;52.388;13.096;2022-12-29T04:21:18;1.60;;;1.50;;
3563;SDS011;1796;52.388;13.096;2022-12-29T04:23:46;1.60;;;1.50;;
3563;SDS011;1796;52.388;13.096;2022-12-29T04:26:13;1.47;;;1.40;;
3563;SDS011;1796;52.388;13.096;2022-12-29T04:28:40;1.53;;;1.53;;
3563;SDS011;1796;52.388;13.096;2022-12-29T04:31:07;1.50;;;1.40;;
3563;SDS011;1796;52.388;13.096;2022-12-29T04:33:33;1.57;;;1.47;;
3563;SDS011;1796;52.388;13.096;2022-12-29T04:36:00;1.43;;;1.33;;
3563;SDS011;1796;52.388;13.096;2022-12-29T04:38:27;1.80;;;1.50;;
3563;SDS011;1796;52.388;13.096;2022-12-29T04:40:58;3.33;;;1.40;;
3563;SDS011;1796;52.388;13.096;2022-12-29T04:43:25;3.27;;;2.70;;
3563;SDS011;1796;52.388;13.096;2022-12-29T04:45:52;1.77;;;1.67;;
3563;SDS011;1796;52.388;13.096;2022-12-29T04:48:19;2.13;;;1.50;;
3563;SDS011;1796;52.388;13.096;2022-12-29T04:50:47;1.60;;;1.50;;
3563;SDS011;1796;52.388;13.096;2022-12-29T04:53:14;1.37;;;1.37;;
3563;SDS011;1796;52.388;13.096;2022-12-29T04:55:42;3.53;;;1.53;;
3563;SDS011;1796;52.388;13.096;2022-12-29T04:58:10;1.90;;;1.60;;
3563;SDS011;1796;52.388;13.096;2022-12-29T05:00:37;1.50;;;1.40;;
3563;SDS011;1796;52.388;13.096;2022-12-29T05:03:04;1.83;;;1.70;;
3563;SDS011;1796;52.388;13.096;2022-12-29T05:05:31;1.17;;;1.17;;
3563;SDS011;1796;52.388;13.096;2022-12-29T05:07:57;4.00;;;1.60;;
3563;SDS011;1796;52.388;13.096;2022-12-29T05:10:24;1.30;;;1.30;;
3563;SDS011;1796;52.388;13.096;2022-12-29T05:12:51;2.70;;;1.70;;
3563;SDS011;1796;52.388;13.096;2022-12-29T05:15:19;2.50;;;2.00;;
3563;SDS011;1796;52.388;13.096;2022-12-29T05:17:47;1.60;;;1.50;;
3563;SDS011;1796;52.388;13.096;2022-12-29T05:20:13;1.73;;;1.60;;
3563;SDS011;1796;52.388;13.096;2022-12-29T05:22:40;1.40;;;1.40;;
3563;SDS011;1796;52.388;13.096;2022-12-29T05:25:08;1.73;;;1.67;;
3563;SDS011;1796;52.388;13.096;2022-12-29T05:27:35;1.43;;;1.33;;
3563;SDS011;1796;52.388;13.096;2022-12-29T05:30:02;2.03;;;1.60;;
3563;SDS011;1796;52.388;13.096;2022-12-29T05:32:31;3.10;;;1.60;;
3563;SDS011;1796;52.388;13.096;2022-12-29T05:34:58;1.93;;;1.60;;
3563;SDS011;1796;52.388;13.096;2022-12-29T05:37:24;1.73;;;1.60;;
3563;SDS011;1796;52.388;13.096;2022-12-29T05:39:51;1.30;;;1.30;;
3563;SDS011;1796;52.388;13.096;2022-12-29T05:42:18;2.40;;;2.27;;
3563;SDS011;1796;52.388;13.096;2022-12-29T05:44:46;1.63;;;1.20;;
3563;SDS011;1796;52.388;13.096;2022-12-29T05:47:15;2.50;;;1.50;;
3563;SDS011;1796;52.388;13.096;2022-12-29T05:49:43;1.67;;;1.57;;
3563;SDS011;1796;52.388;13.096;2022-12-29T05:52:10;1.47;;;1.37;;
3563;SDS011;1796;52.388;13.096;2022-12-29T05:54:37;2.70;;;1.90;;
3563;SDS011;1796;52.388;13.096;2022-12-29T05:57:04;1.67;;;1.57;;
3563;SDS011;1796;52.388;13.096;2022-12-29T05:59:31;1.60;;;1.50;;
3563;SDS011;1796;52.388;13.096;2022-12-29T06:01:57;1.40;;;1.40;;
3563;SDS011;1796;52.388;13.096;2022-12-29T06:04:24;1.63;;;1.63;;
3563;SDS011;1796;52.388;13.096;2022-12-29T06:06:53;1.77;;;1.67;;
3563;SDS011;1796;52.388;13.096;2022-12-29T06:09:19;2.77;;;1.70;;
3563;SDS011;1796;52.388;13.096;2022-12-29T06:11:46;1.90;;;1.30;;
3563;SDS011;1796;52.388;13.096;2022-12-29T06:14:13;1.40;;;1.40;;
3563;SDS011;1796;52.388;13.096;2022-12-29T06:16:40;1.90;;;1.30;;
3563;SDS011;1796;52.388;13.096;2022-12-29T06:19:07;1.60;;;1.50;;
3563;SDS011;1796;52.388;13.096;2022-12-29T06:21:34;1.37;;;1.27;;
3563;SDS011;1796;52.388;13.096;2022-12-29T06:24:04;1.53;;;1.43;;
3563;SDS011;1796;52.388;13.096;2022-12-29T06:26:31;7.73;;;1.30;;
3563;SDS011;1796;52.388;13.096;2022-12-29T06:28:58;1.07;;;1.07;;
3563;SDS011;1796;52.388;13.096;2022-12-29T06:31:25;2.13;;;1.33;;
3563;SDS011;1796;52.388;13.096;2022-12-29T06:33:52;1.10;;;1.10;;
3563;SDS011;1796;52.388;13.096;2022-12-29T06:36:18;1.90;;;1.50;;
3563;SDS011;1796;52.388;13.096;2022-12-29T06:38:45;3.03;;;1.33;;
3563;SDS011;1796;52.388;13.096;2022-12-29T06:41:14;1.10;;;1.10;;
3563;SDS011;1796;52.388;13.096;2022-12-29T06:43:40;2.60;;;1.40;;
3563;SDS011;1796;52.388;13.096;2022-12-29T06:46:07;6.10;;;1.60;;
3563;SDS011;1796;52.388;13.096;2022-12-29T06:48:34;1.80;;;1.43;;
3563;SDS011;1796;52.388;13.096;2022-12-29T06:51:01;7.07;;;1.60;;
3563;SDS011;1796;52.388;13.096;2022-12-29T06:53:28;1.10;;;1.10;;
3563;SDS011;1796;52.388;13.096;2022-12-29T06:55:55;1.50;;;1.40;;
3563;SDS011;1796;52.388;13.096;2022-12-29T06:58:24;1.50;;;1.40;;
3563;SDS011;1796;52.388;13.096;2022-12-29T07:00:50;3.23;;;1.23;;
3563;SDS011;1796;52.388;13.096;2022-12-29T07:03:17;2.30;;;1.60;;
3563;SDS011;1796;52.388;13.096;2022-12-29T07:05:44;1.53;;;1.43;;
3563;SDS011;1796;52.388;13.096;2022-12-29T07:08:11;1.77;;;1.40;;
3563;SDS011;1796;52.388;13.096;2022-12-29T07:10:39;1.00;;;1.00;;
3563;SDS011;1796;52.388;13.096;2022-12-29T07:13:05;1.20;;;1.10;;
3563;SDS011;1796;52.388;13.096;2022-12-29T07:15:34;1.40;;;1.30;;
3563;SDS011;1796;52.388;13.096;2022-12-29T07:18:02;1.50;;;1.40;;
3563;SDS011;1796;52.388;13.096;2022-12-29T07:20:29;1.60;;;1.50;;
3563;SDS011;1796;52.388;13.096;2022-12-29T07:22:56;1.30;;;1.30;;
3563;SDS011;1796;52.388;13.096;2022-12-29T07:25:23;1.40;;;1.30;;
3563;SDS011;1796;52.388;13.096;2022-12-29T07:27:50;1.40;;;1.40;;
3563;SDS011;1796;52.388;13.096;2022-12-29T07:30:17;1.33;;;1.33;;
3563;SDS011;1796;52.388;13.096;2022-12-29T07:32:45;1.87;;;1.77;;
3563;SDS011;1796;52.388;13.096;2022-12-29T07:35:12;2.43;;;2.23;;
3563;SDS011;1796;52.388;13.096;2022-12-29T07:37:39;2.30;;;1.57;;
3563;SDS011;1796;52.388;13.096;2022-12-29T07:40:07;2.23;;;1.60;;
3563;SDS011;1796;52.388;13.096;2022-12-29T07:42:35;1.37;;;1.27;;
3563;SDS011;1796;52.388;13.096;2022-12-29T07:45:02;1.17;;;1.13;;
3563;SDS011;1796;52.388;13.096;2022-12-29T07:47:29;1.60;;;1.60;;
3563;SDS011;1796;52.388;13.096;2022-12-29T07:49:58;1.80;;;1.70;;
3563;SDS011;1796;52.388;13.096;2022-12-29T07:52:25;2.67;;;1.53;;
3563;SDS011;1796;52.388;13.096;2022-12-29T07:54:52;1.37;;;1.27;;
3563;SDS011;1796;52.388;13.096;2022-12-29T07:57:19;1.20;;;1.20;;
3563;SDS011;1796;52.388;13.096;2022-12-29T07:59:45;1.07;;;1.03;;
3563;SDS011;1796;52.388;13.096;2022-12-29T08:02:12;23.53;;;1.47;;
3563;SDS011;1796;52.388;13.096;2022-12-29T08:04:39;1.00;;;1.00;;
3563;SDS011;1796;52.388;13.096;2022-12-29T08:07:08;1.13;;;1.13;;
3563;SDS011;1796;52.388;13.096;2022-12-29T08:09:34;1.37;;;1.30;;
3563;SDS011;1796;52.388;13.096;2022-12-29T08:12:01;1.23;;;1.23;;
3563;SDS011;1796;52.388;13.096;2022-12-29T08:14:28;2.87;;;1.40;;
3563;SDS011;1796;52.388;13.096;2022-12-29T08:16:55;1.20;;;1.20;;
3563;SDS011;1796;52.388;13.096;2022-12-29T08:19:22;1.43;;;1.30;;
3563;SDS011;1796;52.388;13.096;2022-12-29T08:21:49;1.10;;;1.10;;
3563;SDS011;1796;52.388;13.096;2022-12-29T08:24:18;1.47;;;1.37;;
3563;SDS011;1796;52.388;13.096;2022-12-29T08:26:44;1.40;;;1.37;;
3563;SDS011;1796;52.388;13.096;2022-12-29T08:29:11;1.57;;;1.33;;
3563;SDS011;1796;52.388;13.096;2022-12-29T08:31:38;3.53;;;1.40;;
3563;SDS011;1796;52.388;13.096;2022-12-29T08:34:05;2.10;;;1.20;;
3563;SDS011;1796;52.388;13.096;2022-12-29T08:36:32;1.20;;;1.20;;
3563;SDS011;1796;52.388;13.096;2022-12-29T08:38:59;3.50;;;1.30;;
3563;SDS011;1796;52.388;13.096;2022-12-29T08:41:27;1.50;;;1.33;;
3563;SDS011;1796;52.388;13.096;2022-12-29T08:43:54;1.20;;;1.20;;
3563;SDS011;1796;52.388;13.096;2022-12-29T08:46:21;1.37;;;1.37;;
3563;SDS011;1796;52.388;13.096;2022-12-29T08:48:48;1.77;;;1.67;;
3563;SDS011;1796;52.388;13.096;2022-12-29T08:51:15;1.47;;;1.37;;
3563;SDS011;1796;52.388;13.096;2022-12-29T08:53:42;3.10;;;1.50;;
3563;SDS011;1796;52.388;13.096;2022-12-29T08:56:09;1.40;;;1.40;;
3563;SDS011;1796;52.388;13.096;2022-12-29T08:58:38;1.57;;;1.47;;
3563;SDS011;1796;52.388;13.096;2022-12-29T09:01:05;3.33;;;1.50;;
3563;SDS011;1796;52.388;13.096;2022-12-29T09:03:33;1.40;;;1.40;;
3563;SDS011;1796;52.388;13.096;2022-12-29T09:05:59;6.83;;;1.50;;
3563;SDS011;1796;52.388;13.096;2022-12-29T09:08:26;1.63;;;1.30;;
3563;SDS011;1796;52.388;13.096;2022-12-29T09:10:53;1.40;;;1.23;;
3563;SDS011;1796;52.388;13.096;2022-12-29T09:13:20;1.30;;;1.30;;
3563;SDS011;1796;52.388;13.096;2022-12-29T09:15:55;4.13;;;1.50;;
3563;SDS011;1796;52.388;13.096;2022-12-29T09:18:24;3.97;;;1.37;;
3563;SDS011;1796;52.388;13.096;2022-12-29T09:20:55;3.60;;;1.47;;
3563;SDS011;1796;52.388;13.096;2022-12-29T09:23:22;1.23;;;1.23;;
3563;SDS011;1796;52.388;13.096;2022-12-29T09:25:49;1.23;;;1.23;;
3563;SDS011;1796;52.388;13.096;2022-12-29T09:28:16;1.80;;;1.80;;
3563;SDS011;1796;52.388;13.096;2022-12-29T09:30:43;2.00;;;1.30;;
3563;SDS011;1796;52.388;13.096;2022-12-29T09:33:11;2.77;;;1.30;;
3563;SDS011;1796;52.388;13.096;2022-12-29T09:35:40;3.00;;;1.30;;
3563;SDS011;1796;52.388;13.096;2022-12-29T09:38:08;1.40;;;1.30;;
3563;SDS011;1796;52.388;13.096;2022-12-29T09:40:35;1.50;;;1.37;;
3563;SDS011;1796;52.388;13.096;2022-12-29T09:45:58;2.50;;;1.40;;
3563;SDS011;1796;52.388;13.096;2022-12-29T09:48:37;1.83;;;1.37;;
3563;SDS011;1796;52.388;13.096;2022-12-29T09:51:08;3.47;;;1.57;;
3563;SDS011;1796;52.388;13.096;2022-12-29T09:53:40;0.90;;;0.90;;
3563;SDS011;1796;52.388;13.096;2022-12-29T09:56:10;2.73;;;1.30;;
3563;SDS011;1796;52.388;13.096;2022-12-29T09:58:42;1.73;;;1.30;;
3563;SDS011;1796;52.388;13.096;2022-12-29T10:01:18;1.30;;;1.30;;
3563;SDS011;1796;52.388;13.096;2022-12-29T10:03:56;1.50;;;1.40;;
3563;SDS011;1796;52.388;13.096;2022-12-29T10:06:24;1.10;;;1.10;;
3563;SDS011;1796;52.388;13.096;2022-12-29T10:08:57;1.20;;;1.10;;
3563;SDS011;1796;52.388;13.096;2022-12-29T10:11:33;3.93;;;1.67;;
3563;SDS011;1796;52.388;13.096;2022-12-29T10:14:17;1.30;;;1.30;;
3563;SDS011;1796;52.388;13.096;2022-12-29T10:16:57;2.03;;;1.30;;
3563;SDS011;1796;52.388;13.096;2022-12-29T10:19:48;5.43;;;1.50;;
3563;SDS011;1796;52.388;13.096;2022-12-29T10:22:41;3.17;;;1.20;;
3563;SDS011;1796;52.388;13.096;2022-12-29T10:25:19;1.90;;;1.23;;
3563;SDS011;1796;52.388;13.096;2022-12-29T10:27:49;1.53;;;1.10;;
3563;SDS011;1796;52.388;13.096;2022-12-29T10:30:17;2.40;;;1.43;;
3563;SDS011;1796;52.388;13.096;2022-12-29T10:32:45;4.33;;;1.33;;
3563;SDS011;1796;52.388;13.096;2022-12-29T10:35:17;6.97;;;1.27;;
3563;SDS011;1796;52.388;13.096;2022-12-29T10:37:48;4.63;;;1.60;;
3563;SDS011;1796;52.388;13.096;2022-12-29T10:40:22;6.30;;;1.40;;
3563;SDS011;1796;52.388;13.096;2022-12-29T10:42:52;1.60;;;1.13;;
3563;SDS011;1796;52.388;13.096;2022-12-29T10:45:21;1.83;;;1.20;;
3563;SDS011;1796;52.388;13.096;2022-12-29T10:47:53;1.70;;;1.00;;
3563;SDS011;1796;52.388;13.096;2022-12-29T10:50:25;3.70;;;1.50;;
3563;SDS011;1796;52.388;13.096;2022-12-29T10:52:54;2.30;;;1.43;;
3563;SDS011;1796;52.388;13.096;2022-12-29T10:55:24;1.40;;;1.23;;
3563;SDS011;1796;52.388;13.096;2022-12-29T10:57:54;1.23;;;1.07;;
3563;SDS011;1796;52.388;13.096;2022-12-29T11:00:25;1.40;;;1.40;;
3563;SDS011;1796;52.388;13.096;2022-12-29T11:03:00;2.30;;;1.43;;
3563;SDS011;1796;52.388;13.096;2022-12-29T11:05:41;1.30;;;1.20;;
3563;SDS011;1796;52.388;13.096;2022-12-29T11:08:13;1.30;;;1.30;;
3563;SDS011;1796;52.388;13.096;2022-12-29T11:10:44;2.70;;;1.33;;
3563;SDS011;1796;52.388;13.096;2022-12-29T11:13:13;2.30;;;1.10;;
3563;SDS011;1796;52.388;13.096;2022-12-29T11:15:42;1.50;;;1.20;;
3563;SDS011;1796;52.388;13.096;2022-12-29T11:18:21;1.30;;;1.30;;
3563;SDS011;1796;52.388;13.096;2022-12-29T11:20:52;2.03;;;1.40;;
3563;SDS011;1796;52.388;13.096;2022-12-29T11:23:24;1.47;;;1.37;;
3563;SDS011;1796;52.388;13.096;2022-12-29T11:28:46;1.40;;;1.40;;
3563;SDS011;1796;52.388;13.096;2022-12-29T11:31:29;1.23;;;1.10;;
3563;SDS011;1796;52.388;13.096;2022-12-29T11:33:56;2.70;;;1.10;;
3563;SDS011;1796;52.388;13.096;2022-12-29T11:36:24;4.60;;;1.27;;
3563;SDS011;1796;52.388;13.096;2022-12-29T11:38:51;1.03;;;1.03;;
3563;SDS011;1796;52.388;13.096;2022-12-29T11:41:21;3.77;;;1.63;;
3563;SDS011;1796;52.388;13.096;2022-12-29T11:43:49;4.03;;;1.40;;
3563;SDS011;1796;52.388;13.096;2022-12-29T11:46:19;4.17;;;2.30;;
3563;SDS011;1796;52.388;13.096;2022-12-29T11:48:49;2.20;;;1.40;;
3563;SDS011;1796;52.388;13.096;2022-12-29T11:51:22;1.67;;;1.13;;
3563;SDS011;1796;52.388;13.096;2022-12-29T11:53:55;3.63;;;0.97;;
3563;SDS011;1796;52.388;13.096;2022-12-29T11:56:32;1.30;;;1.20;;
3563;SDS011;1796;52.388;13.096;2022-12-29T11:59:22;2.40;;;1.33;;
3563;SDS011;1796;52.388;13.096;2022-12-29T12:04:59;1.70;;;1.50;;
3563;SDS011;1796;52.388;13.096;2022-12-29T12:07:36;1.27;;;1.27;;
3563;SDS011;1796;52.388;13.096;2022-12-29T12:10:08;4.20;;;1.60;;
3563;SDS011;1796;52.388;13.096;2022-12-29T12:12:41;1.20;;;1.20;;
3563;SDS011;1796;52.388;13.096;2022-12-29T12:15:13;1.63;;;1.00;;
3563;SDS011;1796;52.388;13.096;2022-12-29T12:17:47;2.90;;;1.10;;
3563;SDS011;1796;52.388;13.096;2022-12-29T12:20:18;1.20;;;1.10;;
3563;SDS011;1796;52.388;13.096;2022-12-29T12:22:51;1.00;;;0.97;;
3563;SDS011;1796;52.388;13.096;2022-12-29T12:25:25;1.03;;;1.03;;
3563;SDS011;1796;52.388;13.096;2022-12-29T12:28:01;0.90;;;0.90;;
3563;SDS011;1796;52.388;13.096;2022-12-29T12:30:37;0.80;;;0.80;;
3563;SDS011;1796;52.388;13.096;2022-12-29T12:33:11;0.90;;;0.90;;
3563;SDS011;1796;52.388;13.096;2022-12-29T12:35:45;1.57;;;0.70;;
3563;SDS011;1796;52.388;13.096;2022-12-29T12:38:23;8.67;;;1.07;;
3563;SDS011;1796;52.388;13.096;2022-12-29T12:40:59;0.90;;;0.80;;
3563;SDS011;1796;52.388;13.096;2022-12-29T12:43:39;1.33;;;0.90;;
3563;SDS011;1796;52.388;13.096;2022-12-29T12:49:26;1.07;;;0.80;;
3563;SDS011;1796;52.388;13.096;2022-12-29T12:52:04;4.20;;;1.07;;
3563;SDS011;1796;52.388;13.096;2022-12-29T12:54:45;1.03;;;1.00;;
3563;SDS011;1796;52.388;13.096;2022-12-29T12:57:28;1.90;;;1.00;;
3563;SDS011;1796;52.388;13.096;2022-12-29T13:00:07;1.43;;;0.70;;
3563;SDS011;1796;52.388;13.096;2022-12-29T13:02:40;1.23;;;1.00;;
3563;SDS011;1796;52.388;13.096;2022-12-29T13:05:22;1.90;;;0.93;;
3563;SDS011;1796;52.388;13.096;2022-12-29T13:08:16;1.00;;;1.00;;
3563;SDS011;1796;52.388;13.096;2022-12-29T13:10:55;0.70;;;0.70;;
3563;SDS011;1796;52.388;13.096;2022-12-29T13:13:41;1.57;;;1.07;;
3563;SDS011;1796;52.388;13.096;2022-12-29T13:16:21;1.10;;;1.00;;
3563;SDS011;1796;52.388;13.096;2022-12-29T13:18:56;4.57;;;1.30;;
3563;SDS011;1796;52.388;13.096;2022-12-29T13:21:30;3.27;;;1.20;;
3563;SDS011;1796;52.388;13.096;2022-12-29T13:24:08;2.83;;;1.30;;
3563;SDS011;1796;52.388;13.096;2022-12-29T13:26:44;1.47;;;1.37;;
3563;SDS011;1796;52.388;13.096;2022-12-29T13:29:15;3.40;;;1.53;;
3563;SDS011;1796;52.388;13.096;2022-12-29T13:31:50;3.93;;;1.10;;
3563;SDS011;1796;52.388;13.096;2022-12-29T13:34:23;1.30;;;1.20;;
3563;SDS011;1796;52.388;13.096;2022-12-29T13:36:58;1.70;;;1.17;;
3563;SDS011;1796;52.388;13.096;2022-12-29T13:39:28;1.23;;;1.23;;
3563;SDS011;1796;52.388;13.096;2022-12-29T13:42:01;1.63;;;1.60;;
3563;SDS011;1796;52.388;13.096;2022-12-29T13:44:30;3.40;;;1.50;;
3563;SDS011;1796;52.388;13.096;2022-12-29T13:47:01;1.20;;;1.20;;
3563;SDS011;1796;52.388;13.096;2022-12-29T13:49:32;3.10;;;1.20;;
3563;SDS011;1796;52.388;13.096;2022-12-29T13:52:03;4.80;;;1.30;;
3563;SDS011;1796;52.388;13.096;2022-12-29T13:54:39;1.43;;;1.30;;
3563;SDS011;1796;52.388;13.096;2022-12-29T13:57:13;4.40;;;1.30;;
3563;SDS011;1796;52.388;13.096;2022-12-29T13:59:49;1.00;;;1.00;;
3563;SDS011;1796;52.388;13.096;2022-12-29T14:02:21;1.10;;;1.10;;
3563;SDS011;1796;52.388;13.096;2022-12-29T14:04:59;1.83;;;1.60;;
3563;SDS011;1796;52.388;13.096;2022-12-29T14:07:27;1.53;;;1.43;;
3563;SDS011;1796;52.388;13.096;2022-12-29T14:09:55;5.80;;;2.30;;
3563;SDS011;1796;52.388;13.096;2022-12-29T14:12:32;2.30;;;2.10;;
3563;SDS011;1796;52.388;13.096;2022-12-29T14:15:04;3.93;;;1.90;;
3563;SDS011;1796;52.388;13.096;2022-12-29T14:17:39;2.63;;;1.70;;
3563;SDS011;1796;52.388;13.096;2022-12-29T14:20:16;1.30;;;1.30;;
3563;SDS011;1796;52.388;13.096;2022-12-29T14:22:54;1.47;;;1.37;;
3563;SDS011;1796;52.388;13.096;2022-12-29T14:28:24;3.43;;;1.90;;
3563;SDS011;1796;52.388;13.096;2022-12-29T14:30:53;4.50;;;1.90;;
3563;SDS011;1796;52.388;13.096;2022-12-29T14:33:22;2.30;;;1.77;;
3563;SDS011;1796;52.388;13.096;2022-12-29T14:35:51;12.73;;;2.00;;
3563;SDS011;1796;52.388;13.096;2022-12-29T14:38:21;4.27;;;2.67;;
3563;SDS011;1796;52.388;13.096;2022-12-29T14:40:50;3.37;;;2.80;;
3563;SDS011;1796;52.388;13.096;2022-12-29T14:43:24;3.40;;;2.10;;
3563;SDS011;1796;52.388;13.096;2022-12-29T14:45:54;3.80;;;3.60;;
3563;SDS011;1796;52.388;13.096;2022-12-29T14:51:18;8.30;;;4.47;;
3563;SDS011;1796;52.388;13.096;2022-12-29T14:53:53;4.40;;;3.90;;
3563;SDS011;1796;52.388;13.096;2022-12-29T14:56:20;4.60;;;4.20;;
3563;SDS011;1796;52.388;13.096;2022-12-29T14:58:54;3.23;;;3.00;;
3563;SDS011;1796;52.388;13.096;2022-12-29T15:01:24;8.73;;;6.90;;
3563;SDS011;1796;52.388;13.096;2022-12-29T15:03:54;3.13;;;2.40;;
3563;SDS011;1796;52.388;13.096;2022-12-29T15:06:31;2.63;;;2.23;;
3563;SDS011;1796;52.388;13.096;2022-12-29T15:09:04;2.23;;;2.10;;
3563;SDS011;1796;52.388;13.096;2022-12-29T15:11:44;2.83;;;1.90;;
3563;SDS011;1796;52.388;13.096;2022-12-29T15:14:30;1.20;;;1.20;;
3563;SDS011;1796;52.388;13.096;2022-12-29T15:16:59;1.50;;;1.40;;
3563;SDS011;1796;52.388;13.096;2022-12-29T15:19:27;2.00;;;1.70;;
3563;SDS011;1796;52.388;13.096;2022-12-29T15:21:54;1.80;;;1.70;;
3563;SDS011;1796;52.388;13.096;2022-12-29T15:24:22;4.53;;;1.80;;
3563;SDS011;1796;52.388;13.096;2022-12-29T15:26:51;3.90;;;2.43;;
3563;SDS011;1796;52.388;13.096;2022-12-29T15:29:35;2.47;;;2.00;;
3563;SDS011;1796;52.388;13.096;2022-12-29T15:32:15;4.13;;;3.90;;
3563;SDS011;1796;52.388;13.096;2022-12-29T15:34:46;4.90;;;4.43;;
3563;SDS011;1796;52.388;13.096;2022-12-29T15:37:16;1.90;;;1.80;;
3563;SDS011;1796;52.388;13.096;2022-12-29T15:39:45;2.23;;;2.13;;
3563;SDS011;1796;52.388;13.096;2022-12-29T15:42:16;3.23;;;2.00;;
3563;SDS011;1796;52.388;13.096;2022-12-29T15:45:03;1.80;;;1.70;;